sensor_id;sensor_type;location;lat;lon;timestamp;P1;durP1;ratioP1;P2;durP2;ratioP2
47856;SDS011;33618;49.972;8.242;2023-09-12T00:01:23;13.85;;;7.22;;
47856;SDS011;33618;49.972;8.242;2023-09-12T00:03:50;11.00;;;7.18;;
47856;SDS011;33618;49.972;8.242;2023-09-12T00:06:17;13.40;;;7.20;;
47856;SDS011;33618;49.972;8.242;2023-09-12T00:08:44;12.10;;;7.13;;
47856;SDS011;33618;49.972;8.242;2023-09-12T00:11:11;14.18;;;7.18;;
47856;SDS011;33618;49.972;8.242;2023-09-12T00:13:39;10.38;;;7.15;;
47856;SDS011;33618;49.972;8.242;2023-09-12T00:16:07;17.77;;;7.55;;
47856;SDS011;33618;49.972;8.242;2023-09-12T00:18:38;11.80;;;7.28;;
47856;SDS011;33618;49.972;8.242;2023-09-12T00:21:05;19.38;;;8.00;;
47856;SDS011;33618;49.972;8.242;2023-09-12T00:23:32;14.40;;;7.70;;
47856;SDS011;33618;49.972;8.242;2023-09-12T00:25:59;15.93;;;7.95;;
47856;SDS011;33618;49.972;8.242;2023-09-12T00:28:26;14.45;;;7.80;;
47856;SDS011;33618;49.972;8.242;2023-09-12T00:30:53;14.05;;;7.88;;
47856;SDS011;33618;49.972;8.242;2023-09-12T00:33:20;15.52;;;7.72;;
47856;SDS011;33618;49.972;8.242;2023-09-12T00:35:47;16.80;;;8.02;;
47856;SDS011;33618;49.972;8.242;2023-09-12T00:38:14;13.00;;;8.10;;
47856;SDS011;33618;49.972;8.242;2023-09-12T00:40:41;14.90;;;7.97;;
47856;SDS011;33618;49.972;8.242;2023-09-12T00:43:08;18.55;;;8.43;;
47856;SDS011;33618;49.972;8.242;2023-09-12T00:45:36;15.02;;;8.05;;
47856;SDS011;33618;49.972;8.242;2023-09-12T00:48:07;19.48;;;8.07;;
47856;SDS011;33618;49.972;8.242;2023-09-12T00:50:34;12.85;;;7.93;;
47856;SDS011;33618;49.972;8.242;2023-09-12T00:53:03;17.20;;;7.70;;
47856;SDS011;33618;49.972;8.242;2023-09-12T00:55:31;15.63;;;8.32;;
47856;SDS011;33618;49.972;8.242;2023-09-12T00:58:04;17.83;;;8.00;;
47856;SDS011;33618;49.972;8.242;2023-09-12T01:00:31;19.45;;;8.80;;
47856;SDS011;33618;49.972;8.242;2023-09-12T01:02:58;13.85;;;8.25;;
47856;SDS011;33618;49.972;8.242;2023-09-12T01:05:26;17.30;;;8.40;;
47856;SDS011;33618;49.972;8.242;2023-09-12T01:07:54;15.90;;;7.75;;
47856;SDS011;33618;49.972;8.242;2023-09-12T01:10:23;14.35;;;8.10;;
47856;SDS011;33618;49.972;8.242;2023-09-12T01:12:50;15.90;;;8.20;;
47856;SDS011;33618;49.972;8.242;2023-09-12T01:15:18;17.75;;;8.75;;
47856;SDS011;33618;49.972;8.242;2023-09-12T01:17:45;14.48;;;8.48;;
47856;SDS011;33618;49.972;8.242;2023-09-12T01:20:28;15.00;;;7.93;;
47856;SDS011;33618;49.972;8.242;2023-09-12T01:23:19;17.35;;;7.95;;
47856;SDS011;33618;49.972;8.242;2023-09-12T01:26:14;13.43;;;7.88;;
47856;SDS011;33618;49.972;8.242;2023-09-12T01:28:50;15.45;;;8.18;;
47856;SDS011;33618;49.972;8.242;2023-09-12T01:31:19;10.60;;;8.00;;
47856;SDS011;33618;49.972;8.242;2023-09-12T01:33:46;17.67;;;8.00;;
47856;SDS011;33618;49.972;8.242;2023-09-12T01:36:13;10.05;;;8.00;;
47856;SDS011;33618;49.972;8.242;2023-09-12T01:38:40;14.02;;;7.80;;
47856;SDS011;33618;49.972;8.242;2023-09-12T01:41:07;13.98;;;7.95;;
47856;SDS011;33618;49.972;8.242;2023-09-12T01:43:34;12.48;;;8.10;;
47856;SDS011;33618;49.972;8.242;2023-09-12T01:46:03;16.08;;;8.35;;
47856;SDS011;33618;49.972;8.242;2023-09-12T01:48:34;11.90;;;7.88;;
47856;SDS011;33618;49.972;8.242;2023-09-12T01:51:03;14.13;;;8.23;;
47856;SDS011;33618;49.972;8.242;2023-09-12T01:53:31;16.13;;;7.85;;
47856;SDS011;33618;49.972;8.242;2023-09-12T01:55:59;15.50;;;8.50;;
47856;SDS011;33618;49.972;8.242;2023-09-12T01:58:26;16.15;;;8.18;;
47856;SDS011;33618;49.972;8.242;2023-09-12T02:00:53;12.80;;;8.10;;
47856;SDS011;33618;49.972;8.242;2023-09-12T02:03:21;18.25;;;8.48;;
47856;SDS011;33618;49.972;8.242;2023-09-12T02:05:48;12.70;;;8.70;;
47856;SDS011;33618;49.972;8.242;2023-09-12T02:08:15;23.15;;;8.75;;
47856;SDS011;33618;49.972;8.242;2023-09-12T02:10:42;13.98;;;7.65;;
47856;SDS011;33618;49.972;8.242;2023-09-12T02:13:08;17.63;;;8.68;;
47856;SDS011;33618;49.972;8.242;2023-09-12T02:15:35;18.33;;;8.80;;
47856;SDS011;33618;49.972;8.242;2023-09-12T02:18:03;15.45;;;8.43;;
47856;SDS011;33618;49.972;8.242;2023-09-12T02:20:30;14.52;;;8.55;;
47856;SDS011;33618;49.972;8.242;2023-09-12T02:22:58;18.10;;;8.77;;
47856;SDS011;33618;49.972;8.242;2023-09-12T02:25:25;20.52;;;8.90;;
47856;SDS011;33618;49.972;8.242;2023-09-12T02:27:52;16.52;;;8.38;;
47856;SDS011;33618;49.972;8.242;2023-09-12T02:30:18;15.90;;;8.88;;
47856;SDS011;33618;49.972;8.242;2023-09-12T02:32:46;16.05;;;8.30;;
47856;SDS011;33618;49.972;8.242;2023-09-12T02:35:13;13.68;;;8.23;;
47856;SDS011;33618;49.972;8.242;2023-09-12T02:37:40;13.60;;;8.20;;
47856;SDS011;33618;49.972;8.242;2023-09-12T02:40:07;21.30;;;8.50;;
47856;SDS011;33618;49.972;8.242;2023-09-12T02:42:38;19.60;;;8.48;;
47856;SDS011;33618;49.972;8.242;2023-09-12T02:45:08;19.20;;;9.38;;
47856;SDS011;33618;49.972;8.242;2023-09-12T02:47:35;15.98;;;8.70;;
47856;SDS011;33618;49.972;8.242;2023-09-12T02:50:02;18.30;;;8.25;;
47856;SDS011;33618;49.972;8.242;2023-09-12T02:52:30;20.50;;;8.63;;
47856;SDS011;33618;49.972;8.242;2023-09-12T02:54:57;16.13;;;8.75;;
47856;SDS011;33618;49.972;8.242;2023-09-12T02:57:27;23.30;;;9.15;;
47856;SDS011;33618;49.972;8.242;2023-09-12T02:59:54;17.35;;;8.38;;
47856;SDS011;33618;49.972;8.242;2023-09-12T03:02:21;21.35;;;9.30;;
47856;SDS011;33618;49.972;8.242;2023-09-12T03:04:48;15.00;;;8.48;;
47856;SDS011;33618;49.972;8.242;2023-09-12T03:07:17;21.20;;;8.68;;
47856;SDS011;33618;49.972;8.242;2023-09-12T03:09:47;17.50;;;8.50;;
47856;SDS011;33618;49.972;8.242;2023-09-12T03:12:16;19.48;;;8.80;;
47856;SDS011;33618;49.972;8.242;2023-09-12T03:14:42;17.45;;;8.18;;
47856;SDS011;33618;49.972;8.242;2023-09-12T03:17:09;13.85;;;8.10;;
47856;SDS011;33618;49.972;8.242;2023-09-12T03:19:36;17.05;;;8.90;;
47856;SDS011;33618;49.972;8.242;2023-09-12T03:22:03;19.30;;;9.30;;
47856;SDS011;33618;49.972;8.242;2023-09-12T03:24:30;21.48;;;9.02;;
47856;SDS011;33618;49.972;8.242;2023-09-12T03:26:57;16.25;;;8.07;;
47856;SDS011;33618;49.972;8.242;2023-09-12T03:29:24;17.63;;;8.35;;
47856;SDS011;33618;49.972;8.242;2023-09-12T03:31:51;24.60;;;7.75;;
47856;SDS011;33618;49.972;8.242;2023-09-12T03:34:18;12.07;;;8.15;;
47856;SDS011;33618;49.972;8.242;2023-09-12T03:36:45;15.85;;;8.52;;
47856;SDS011;33618;49.972;8.242;2023-09-12T03:39:11;20.35;;;9.05;;
47856;SDS011;33618;49.972;8.242;2023-09-12T03:41:39;18.77;;;8.30;;
47856;SDS011;33618;49.972;8.242;2023-09-12T03:44:06;15.15;;;8.52;;
47856;SDS011;33618;49.972;8.242;2023-09-12T03:46:33;17.10;;;9.40;;
47856;SDS011;33618;49.972;8.242;2023-09-12T03:49:00;19.50;;;8.40;;
47856;SDS011;33618;49.972;8.242;2023-09-12T03:51:27;19.55;;;8.75;;
47856;SDS011;33618;49.972;8.242;2023-09-12T03:53:54;15.88;;;8.65;;
47856;SDS011;33618;49.972;8.242;2023-09-12T03:56:21;16.02;;;8.93;;
47856;SDS011;33618;49.972;8.242;2023-09-12T03:58:48;12.20;;;8.13;;
47856;SDS011;33618;49.972;8.242;2023-09-12T04:01:15;18.45;;;7.90;;
47856;SDS011;33618;49.972;8.242;2023-09-12T04:03:43;17.40;;;7.88;;
47856;SDS011;33618;49.972;8.242;2023-09-12T04:06:13;15.77;;;8.02;;
47856;SDS011;33618;49.972;8.242;2023-09-12T04:08:40;16.42;;;7.90;;
47856;SDS011;33618;49.972;8.242;2023-09-12T04:11:08;18.17;;;7.75;;
47856;SDS011;33618;49.972;8.242;2023-09-12T04:13:35;17.15;;;7.88;;
47856;SDS011;33618;49.972;8.242;2023-09-12T04:16:02;18.15;;;8.10;;
47856;SDS011;33618;49.972;8.242;2023-09-12T04:18:29;18.40;;;8.50;;
47856;SDS011;33618;49.972;8.242;2023-09-12T04:20:56;16.15;;;8.00;;
47856;SDS011;33618;49.972;8.242;2023-09-12T04:23:26;13.23;;;7.85;;
47856;SDS011;33618;49.972;8.242;2023-09-12T04:25:53;14.48;;;7.93;;
47856;SDS011;33618;49.972;8.242;2023-09-12T04:28:20;13.93;;;8.13;;
47856;SDS011;33618;49.972;8.242;2023-09-12T04:30:47;17.65;;;8.55;;
47856;SDS011;33618;49.972;8.242;2023-09-12T04:33:14;14.27;;;8.27;;
47856;SDS011;33618;49.972;8.242;2023-09-12T04:35:41;18.25;;;8.07;;
47856;SDS011;33618;49.972;8.242;2023-09-12T04:38:11;16.13;;;8.65;;
47856;SDS011;33618;49.972;8.242;2023-09-12T04:40:38;19.58;;;8.85;;
47856;SDS011;33618;49.972;8.242;2023-09-12T04:43:06;18.58;;;8.43;;
47856;SDS011;33618;49.972;8.242;2023-09-12T04:45:33;21.20;;;9.38;;
47856;SDS011;33618;49.972;8.242;2023-09-12T04:48:00;23.92;;;12.25;;
47856;SDS011;33618;49.972;8.242;2023-09-12T04:50:28;26.42;;;15.30;;
47856;SDS011;33618;49.972;8.242;2023-09-12T04:52:55;27.05;;;17.42;;
47856;SDS011;33618;49.972;8.242;2023-09-12T04:55:21;30.98;;;19.00;;
47856;SDS011;33618;49.972;8.242;2023-09-12T04:57:48;26.75;;;18.15;;
47856;SDS011;33618;49.972;8.242;2023-09-12T05:00:15;28.98;;;18.45;;
47856;SDS011;33618;49.972;8.242;2023-09-12T05:02:43;37.40;;;21.10;;
47856;SDS011;33618;49.972;8.242;2023-09-12T05:05:10;31.65;;;15.02;;
47856;SDS011;33618;49.972;8.242;2023-09-12T05:07:36;29.48;;;13.93;;
47856;SDS011;33618;49.972;8.242;2023-09-12T05:10:04;25.52;;;12.10;;
47856;SDS011;33618;49.972;8.242;2023-09-12T05:12:31;27.73;;;13.65;;
47856;SDS011;33618;49.972;8.242;2023-09-12T05:14:58;21.80;;;9.75;;
47856;SDS011;33618;49.972;8.242;2023-09-12T05:17:24;19.90;;;9.93;;
47856;SDS011;33618;49.972;8.242;2023-09-12T05:19:52;22.40;;;9.73;;
47856;SDS011;33618;49.972;8.242;2023-09-12T05:22:19;22.25;;;9.77;;
47856;SDS011;33618;49.972;8.242;2023-09-12T05:24:46;15.18;;;9.45;;
47856;SDS011;33618;49.972;8.242;2023-09-12T05:27:13;15.85;;;8.95;;
47856;SDS011;33618;49.972;8.242;2023-09-12T05:29:40;19.30;;;9.25;;
47856;SDS011;33618;49.972;8.242;2023-09-12T05:32:07;17.98;;;9.20;;
47856;SDS011;33618;49.972;8.242;2023-09-12T05:34:34;21.92;;;10.15;;
47856;SDS011;33618;49.972;8.242;2023-09-12T05:37:01;20.23;;;10.30;;
47856;SDS011;33618;49.972;8.242;2023-09-12T05:39:29;23.80;;;11.35;;
47856;SDS011;33618;49.972;8.242;2023-09-12T05:41:55;26.20;;;14.90;;
47856;SDS011;33618;49.972;8.242;2023-09-12T05:44:22;22.50;;;12.20;;
47856;SDS011;33618;49.972;8.242;2023-09-12T05:46:49;22.42;;;10.88;;
47856;SDS011;33618;49.972;8.242;2023-09-12T05:49:16;24.27;;;11.20;;
47856;SDS011;33618;49.972;8.242;2023-09-12T05:51:43;21.85;;;10.10;;
47856;SDS011;33618;49.972;8.242;2023-09-12T05:54:10;19.30;;;9.85;;
47856;SDS011;33618;49.972;8.242;2023-09-12T05:56:40;22.45;;;9.45;;
47856;SDS011;33618;49.972;8.242;2023-09-12T05:59:06;22.95;;;9.50;;
47856;SDS011;33618;49.972;8.242;2023-09-12T06:01:33;26.95;;;10.93;;
47856;SDS011;33618;49.972;8.242;2023-09-12T06:04:00;27.30;;;11.48;;
47856;SDS011;33618;49.972;8.242;2023-09-12T06:06:28;19.50;;;9.75;;
47856;SDS011;33618;49.972;8.242;2023-09-12T06:08:55;22.65;;;9.73;;
47856;SDS011;33618;49.972;8.242;2023-09-12T06:11:22;26.85;;;9.70;;
47856;SDS011;33618;49.972;8.242;2023-09-12T06:13:49;25.45;;;9.52;;
47856;SDS011;33618;49.972;8.242;2023-09-12T06:16:16;19.20;;;9.38;;
47856;SDS011;33618;49.972;8.242;2023-09-12T06:18:43;27.30;;;10.35;;
47856;SDS011;33618;49.972;8.242;2023-09-12T06:21:10;19.88;;;10.40;;
47856;SDS011;33618;49.972;8.242;2023-09-12T06:23:37;27.30;;;10.65;;
47856;SDS011;33618;49.972;8.242;2023-09-12T06:26:04;30.92;;;10.07;;
47856;SDS011;33618;49.972;8.242;2023-09-12T06:28:31;26.15;;;10.48;;
47856;SDS011;33618;49.972;8.242;2023-09-12T06:30:58;20.50;;;9.40;;
47856;SDS011;33618;49.972;8.242;2023-09-12T06:33:26;23.63;;;9.70;;
47856;SDS011;33618;49.972;8.242;2023-09-12T06:35:53;18.85;;;9.80;;
47856;SDS011;33618;49.972;8.242;2023-09-12T06:38:21;22.10;;;9.77;;
47856;SDS011;33618;49.972;8.242;2023-09-12T06:40:49;17.70;;;9.38;;
47856;SDS011;33618;49.972;8.242;2023-09-12T06:43:16;21.45;;;9.25;;
47856;SDS011;33618;49.972;8.242;2023-09-12T06:45:43;16.73;;;9.02;;
47856;SDS011;33618;49.972;8.242;2023-09-12T06:48:10;21.10;;;9.20;;
47856;SDS011;33618;49.972;8.242;2023-09-12T06:50:37;22.60;;;9.98;;
47856;SDS011;33618;49.972;8.242;2023-09-12T06:53:05;22.88;;;8.90;;
47856;SDS011;33618;49.972;8.242;2023-09-12T06:55:33;13.30;;;8.50;;
47856;SDS011;33618;49.972;8.242;2023-09-12T06:58:00;18.85;;;8.13;;
47856;SDS011;33618;49.972;8.242;2023-09-12T07:00:27;17.00;;;8.75;;
47856;SDS011;33618;49.972;8.242;2023-09-12T07:02:54;19.15;;;8.20;;
47856;SDS011;33618;49.972;8.242;2023-09-12T07:05:21;18.40;;;7.95;;
47856;SDS011;33618;49.972;8.242;2023-09-12T07:07:48;15.70;;;7.88;;
47856;SDS011;33618;49.972;8.242;2023-09-12T07:10:15;20.38;;;8.32;;
47856;SDS011;33618;49.972;8.242;2023-09-12T07:12:50;13.52;;;7.95;;
47856;SDS011;33618;49.972;8.242;2023-09-12T07:15:19;16.45;;;8.02;;
47856;SDS011;33618;49.972;8.242;2023-09-12T07:17:46;15.32;;;8.10;;
47856;SDS011;33618;49.972;8.242;2023-09-12T07:20:13;16.95;;;7.63;;
47856;SDS011;33618;49.972;8.242;2023-09-12T07:22:42;17.58;;;7.82;;
47856;SDS011;33618;49.972;8.242;2023-09-12T07:25:09;16.35;;;7.40;;
47856;SDS011;33618;49.972;8.242;2023-09-12T07:27:38;16.50;;;7.60;;
47856;SDS011;33618;49.972;8.242;2023-09-12T07:30:05;14.73;;;7.10;;
47856;SDS011;33618;49.972;8.242;2023-09-12T07:32:33;16.10;;;7.78;;
47856;SDS011;33618;49.972;8.242;2023-09-12T07:35:00;25.02;;;7.53;;
47856;SDS011;33618;49.972;8.242;2023-09-12T07:37:27;14.35;;;7.10;;
47856;SDS011;33618;49.972;8.242;2023-09-12T07:39:54;16.52;;;6.90;;
47856;SDS011;33618;49.972;8.242;2023-09-12T07:42:22;19.23;;;7.10;;
47856;SDS011;33618;49.972;8.242;2023-09-12T07:44:50;12.77;;;6.93;;
47856;SDS011;33618;49.972;8.242;2023-09-12T07:47:17;17.25;;;6.90;;
47856;SDS011;33618;49.972;8.242;2023-09-12T07:49:45;19.67;;;7.13;;
47856;SDS011;33618;49.972;8.242;2023-09-12T07:52:12;18.40;;;7.70;;
47856;SDS011;33618;49.972;8.242;2023-09-12T07:54:39;17.27;;;6.88;;
47856;SDS011;33618;49.972;8.242;2023-09-12T07:57:06;19.35;;;6.50;;
47856;SDS011;33618;49.972;8.242;2023-09-12T07:59:33;21.08;;;7.15;;
47856;SDS011;33618;49.972;8.242;2023-09-12T08:02:00;17.33;;;6.63;;
47856;SDS011;33618;49.972;8.242;2023-09-12T08:04:27;18.05;;;7.20;;
47856;SDS011;33618;49.972;8.242;2023-09-12T08:06:54;16.10;;;6.88;;
47856;SDS011;33618;49.972;8.242;2023-09-12T08:09:23;21.77;;;7.10;;
47856;SDS011;33618;49.972;8.242;2023-09-12T08:12:10;23.40;;;7.13;;
47856;SDS011;33618;49.972;8.242;2023-09-12T08:14:37;17.10;;;6.55;;
47856;SDS011;33618;49.972;8.242;2023-09-12T08:17:05;19.08;;;6.90;;
47856;SDS011;33618;49.972;8.242;2023-09-12T08:19:33;16.65;;;6.60;;
47856;SDS011;33618;49.972;8.242;2023-09-12T08:21:59;13.82;;;6.40;;
47856;SDS011;33618;49.972;8.242;2023-09-12T08:24:26;15.38;;;6.47;;
47856;SDS011;33618;49.972;8.242;2023-09-12T08:26:53;17.30;;;6.25;;
47856;SDS011;33618;49.972;8.242;2023-09-12T08:29:20;16.20;;;6.93;;
47856;SDS011;33618;49.972;8.242;2023-09-12T08:31:47;17.95;;;6.95;;
47856;SDS011;33618;49.972;8.242;2023-09-12T08:34:14;16.02;;;6.45;;
47856;SDS011;33618;49.972;8.242;2023-09-12T08:36:47;13.18;;;6.82;;
47856;SDS011;33618;49.972;8.242;2023-09-12T08:39:15;13.38;;;6.30;;
47856;SDS011;33618;49.972;8.242;2023-09-12T08:41:43;19.52;;;6.63;;
47856;SDS011;33618;49.972;8.242;2023-09-12T08:44:12;13.98;;;6.20;;
47856;SDS011;33618;49.972;8.242;2023-09-12T08:46:41;16.67;;;6.22;;
47856;SDS011;33618;49.972;8.242;2023-09-12T08:49:08;19.30;;;6.20;;
47856;SDS011;33618;49.972;8.242;2023-09-12T08:51:37;10.73;;;5.45;;
47856;SDS011;33618;49.972;8.242;2023-09-12T08:54:06;14.00;;;5.50;;
47856;SDS011;33618;49.972;8.242;2023-09-12T08:56:39;14.00;;;6.00;;
47856;SDS011;33618;49.972;8.242;2023-09-12T08:59:08;22.30;;;5.85;;
47856;SDS011;33618;49.972;8.242;2023-09-12T09:01:36;16.75;;;5.95;;
47856;SDS011;33618;49.972;8.242;2023-09-12T09:04:04;11.60;;;6.10;;
47856;SDS011;33618;49.972;8.242;2023-09-12T09:06:32;18.08;;;6.10;;
47856;SDS011;33618;49.972;8.242;2023-09-12T09:09:04;16.38;;;6.20;;
47856;SDS011;33618;49.972;8.242;2023-09-12T09:11:33;14.75;;;6.07;;
47856;SDS011;33618;49.972;8.242;2023-09-12T09:14:02;15.70;;;5.95;;
47856;SDS011;33618;49.972;8.242;2023-09-12T09:16:29;13.77;;;5.80;;
47856;SDS011;33618;49.972;8.242;2023-09-12T09:19:01;18.08;;;6.63;;
47856;SDS011;33618;49.972;8.242;2023-09-12T09:21:31;13.98;;;5.75;;
47856;SDS011;33618;49.972;8.242;2023-09-12T09:24:02;17.73;;;6.10;;
47856;SDS011;33618;49.972;8.242;2023-09-12T09:29:14;14.88;;;5.93;;
47856;SDS011;33618;49.972;8.242;2023-09-12T09:31:46;12.63;;;5.70;;
47856;SDS011;33618;49.972;8.242;2023-09-12T09:34:15;14.55;;;6.03;;
47856;SDS011;33618;49.972;8.242;2023-09-12T09:36:48;11.88;;;5.75;;
47856;SDS011;33618;49.972;8.242;2023-09-12T09:39:20;14.25;;;5.57;;
47856;SDS011;33618;49.972;8.242;2023-09-12T09:41:50;12.88;;;6.35;;
47856;SDS011;33618;49.972;8.242;2023-09-12T09:44:18;13.68;;;5.90;;
47856;SDS011;33618;49.972;8.242;2023-09-12T09:46:54;10.57;;;5.68;;
47856;SDS011;33618;49.972;8.242;2023-09-12T09:49:24;11.82;;;6.13;;
47856;SDS011;33618;49.972;8.242;2023-09-12T09:51:51;12.65;;;5.65;;
47856;SDS011;33618;49.972;8.242;2023-09-12T09:54:23;13.63;;;5.55;;
47856;SDS011;33618;49.972;8.242;2023-09-12T09:56:56;17.50;;;5.97;;
47856;SDS011;33618;49.972;8.242;2023-09-12T09:59:25;8.38;;;5.65;;
47856;SDS011;33618;49.972;8.242;2023-09-12T10:01:57;16.88;;;6.07;;
47856;SDS011;33618;49.972;8.242;2023-09-12T10:04:26;9.38;;;5.35;;
47856;SDS011;33618;49.972;8.242;2023-09-12T10:06:57;11.50;;;5.97;;
47856;SDS011;33618;49.972;8.242;2023-09-12T10:09:25;14.10;;;5.65;;
47856;SDS011;33618;49.972;8.242;2023-09-12T10:11:54;13.32;;;5.60;;
47856;SDS011;33618;49.972;8.242;2023-09-12T10:14:22;14.32;;;5.93;;
47856;SDS011;33618;49.972;8.242;2023-09-12T10:16:50;14.68;;;5.97;;
47856;SDS011;33618;49.972;8.242;2023-09-12T10:19:24;17.33;;;6.50;;
47856;SDS011;33618;49.972;8.242;2023-09-12T10:24:43;14.95;;;6.13;;
47856;SDS011;33618;49.972;8.242;2023-09-12T10:27:12;15.40;;;6.10;;
47856;SDS011;33618;49.972;8.242;2023-09-12T10:29:39;18.52;;;5.82;;
47856;SDS011;33618;49.972;8.242;2023-09-12T10:32:07;14.82;;;5.97;;
47856;SDS011;33618;49.972;8.242;2023-09-12T10:34:35;12.63;;;6.05;;
47856;SDS011;33618;49.972;8.242;2023-09-12T10:37:04;12.50;;;6.18;;
47856;SDS011;33618;49.972;8.242;2023-09-12T10:39:33;17.58;;;6.50;;
47856;SDS011;33618;49.972;8.242;2023-09-12T10:42:03;10.73;;;6.22;;
47856;SDS011;33618;49.972;8.242;2023-09-12T10:44:30;12.57;;;5.97;;
47856;SDS011;33618;49.972;8.242;2023-09-12T10:46:58;14.50;;;6.32;;
47856;SDS011;33618;49.972;8.242;2023-09-12T10:49:26;14.23;;;6.13;;
47856;SDS011;33618;49.972;8.242;2023-09-12T10:51:54;12.73;;;5.75;;
47856;SDS011;33618;49.972;8.242;2023-09-12T10:54:26;9.55;;;5.63;;
47856;SDS011;33618;49.972;8.242;2023-09-12T10:57:11;17.65;;;6.45;;
47856;SDS011;33618;49.972;8.242;2023-09-12T11:04:58;11.57;;;5.38;;
47856;SDS011;33618;49.972;8.242;2023-09-12T11:07:32;11.55;;;6.07;;
47856;SDS011;33618;49.972;8.242;2023-09-12T11:12:43;10.57;;;5.93;;
47856;SDS011;33618;49.972;8.242;2023-09-12T11:15:10;11.35;;;6.00;;
47856;SDS011;33618;49.972;8.242;2023-09-12T11:17:38;13.65;;;6.15;;
47856;SDS011;33618;49.972;8.242;2023-09-12T11:20:06;10.75;;;5.78;;
47856;SDS011;33618;49.972;8.242;2023-09-12T11:22:41;12.10;;;5.78;;
47856;SDS011;33618;49.972;8.242;2023-09-12T11:30:23;12.18;;;5.80;;
47856;SDS011;33618;49.972;8.242;2023-09-12T11:33:03;14.02;;;5.75;;
47856;SDS011;33618;49.972;8.242;2023-09-12T11:35:35;12.27;;;5.60;;
47856;SDS011;33618;49.972;8.242;2023-09-12T11:38:09;9.73;;;5.70;;
47856;SDS011;33618;49.972;8.242;2023-09-12T11:43:04;11.30;;;5.55;;
47856;SDS011;33618;49.972;8.242;2023-09-12T11:45:31;8.15;;;5.30;;
47856;SDS011;33618;49.972;8.242;2023-09-12T11:48:02;13.48;;;5.90;;
47856;SDS011;33618;49.972;8.242;2023-09-12T11:50:29;13.27;;;5.43;;
47856;SDS011;33618;49.972;8.242;2023-09-12T11:52:59;12.07;;;5.80;;
47856;SDS011;33618;49.972;8.242;2023-09-12T11:55:25;13.52;;;5.80;;
47856;SDS011;33618;49.972;8.242;2023-09-12T11:57:52;14.40;;;5.90;;
47856;SDS011;33618;49.972;8.242;2023-09-12T12:00:20;8.98;;;5.38;;
47856;SDS011;33618;49.972;8.242;2023-09-12T12:02:47;9.73;;;6.03;;
47856;SDS011;33618;49.972;8.242;2023-09-12T12:05:14;11.57;;;5.57;;
47856;SDS011;33618;49.972;8.242;2023-09-12T12:07:42;13.00;;;5.75;;
47856;SDS011;33618;49.972;8.242;2023-09-12T12:10:11;11.68;;;5.80;;
47856;SDS011;33618;49.972;8.242;2023-09-12T12:12:41;11.43;;;5.82;;
47856;SDS011;33618;49.972;8.242;2023-09-12T12:15:10;11.55;;;5.35;;
47856;SDS011;33618;49.972;8.242;2023-09-12T12:17:37;17.73;;;5.43;;
47856;SDS011;33618;49.972;8.242;2023-09-12T12:20:08;10.35;;;5.97;;
47856;SDS011;33618;49.972;8.242;2023-09-12T12:22:37;15.68;;;5.88;;
47856;SDS011;33618;49.972;8.242;2023-09-12T12:25:06;10.18;;;5.65;;
47856;SDS011;33618;49.972;8.242;2023-09-12T12:27:38;10.82;;;5.53;;
47856;SDS011;33618;49.972;8.242;2023-09-12T12:30:06;11.82;;;5.65;;
47856;SDS011;33618;49.972;8.242;2023-09-12T12:32:41;14.23;;;5.70;;
47856;SDS011;33618;49.972;8.242;2023-09-12T12:35:09;11.63;;;5.70;;
47856;SDS011;33618;49.972;8.242;2023-09-12T12:38:05;11.32;;;5.55;;
47856;SDS011;33618;49.972;8.242;2023-09-12T12:40:37;12.75;;;5.75;;
47856;SDS011;33618;49.972;8.242;2023-09-12T12:43:16;10.43;;;5.72;;
47856;SDS011;33618;49.972;8.242;2023-09-12T12:45:56;12.07;;;5.68;;
47856;SDS011;33618;49.972;8.242;2023-09-12T12:48:34;14.63;;;5.38;;
47856;SDS011;33618;49.972;8.242;2023-09-12T12:54:03;7.93;;;5.22;;
47856;SDS011;33618;49.972;8.242;2023-09-12T12:56:31;8.20;;;5.47;;
47856;SDS011;33618;49.972;8.242;2023-09-12T12:58:59;11.30;;;5.70;;
47856;SDS011;33618;49.972;8.242;2023-09-12T13:01:30;14.82;;;5.32;;
47856;SDS011;33618;49.972;8.242;2023-09-12T13:03:57;10.43;;;5.78;;
47856;SDS011;33618;49.972;8.242;2023-09-12T13:06:25;10.02;;;5.13;;
47856;SDS011;33618;49.972;8.242;2023-09-12T13:08:54;9.38;;;5.25;;
47856;SDS011;33618;49.972;8.242;2023-09-12T13:11:23;11.48;;;5.32;;
47856;SDS011;33618;49.972;8.242;2023-09-12T13:13:50;18.58;;;5.93;;
47856;SDS011;33618;49.972;8.242;2023-09-12T13:16:18;14.68;;;5.90;;
47856;SDS011;33618;49.972;8.242;2023-09-12T13:18:45;11.43;;;5.57;;
47856;SDS011;33618;49.972;8.242;2023-09-12T13:21:13;7.82;;;5.85;;
47856;SDS011;33618;49.972;8.242;2023-09-12T13:23:40;13.52;;;5.20;;
47856;SDS011;33618;49.972;8.242;2023-09-12T13:26:08;21.42;;;5.72;;
47856;SDS011;33618;49.972;8.242;2023-09-12T13:28:36;12.20;;;5.35;;
47856;SDS011;33618;49.972;8.242;2023-09-12T13:31:03;9.85;;;5.35;;
47856;SDS011;33618;49.972;8.242;2023-09-12T13:33:30;10.27;;;5.30;;
47856;SDS011;33618;49.972;8.242;2023-09-12T13:35:58;11.85;;;5.85;;
47856;SDS011;33618;49.972;8.242;2023-09-12T13:38:25;10.98;;;5.28;;
47856;SDS011;33618;49.972;8.242;2023-09-12T13:40:52;14.73;;;5.15;;
47856;SDS011;33618;49.972;8.242;2023-09-12T13:43:19;13.45;;;5.18;;
47856;SDS011;33618;49.972;8.242;2023-09-12T13:45:46;13.77;;;5.70;;
47856;SDS011;33618;49.972;8.242;2023-09-12T13:48:13;13.82;;;4.90;;
47856;SDS011;33618;49.972;8.242;2023-09-12T13:50:41;11.05;;;5.18;;
47856;SDS011;33618;49.972;8.242;2023-09-12T13:53:11;10.52;;;5.35;;
47856;SDS011;33618;49.972;8.242;2023-09-12T13:55:38;11.40;;;4.70;;
47856;SDS011;33618;49.972;8.242;2023-09-12T13:58:25;7.25;;;4.93;;
47856;SDS011;33618;49.972;8.242;2023-09-12T14:01:07;12.07;;;5.13;;
47856;SDS011;33618;49.972;8.242;2023-09-12T14:03:36;17.65;;;5.15;;
47856;SDS011;33618;49.972;8.242;2023-09-12T14:06:03;12.20;;;5.63;;
47856;SDS011;33618;49.972;8.242;2023-09-12T14:08:31;13.50;;;5.30;;
47856;SDS011;33618;49.972;8.242;2023-09-12T14:10:58;10.43;;;4.68;;
47856;SDS011;33618;49.972;8.242;2023-09-12T14:13:25;11.63;;;4.72;;
47856;SDS011;33618;49.972;8.242;2023-09-12T14:15:52;7.78;;;4.55;;
47856;SDS011;33618;49.972;8.242;2023-09-12T14:18:21;8.50;;;4.82;;
47856;SDS011;33618;49.972;8.242;2023-09-12T14:20:49;8.88;;;4.80;;
47856;SDS011;33618;49.972;8.242;2023-09-12T14:23:19;13.27;;;4.60;;
47856;SDS011;33618;49.972;8.242;2023-09-12T14:25:48;10.05;;;4.80;;
47856;SDS011;33618;49.972;8.242;2023-09-12T14:28:15;10.35;;;5.00;;
47856;SDS011;33618;49.972;8.242;2023-09-12T14:30:44;8.57;;;4.80;;
47856;SDS011;33618;49.972;8.242;2023-09-12T14:33:12;7.60;;;4.70;;
47856;SDS011;33618;49.972;8.242;2023-09-12T14:35:42;7.25;;;4.82;;
47856;SDS011;33618;49.972;8.242;2023-09-12T14:38:10;9.48;;;4.82;;
47856;SDS011;33618;49.972;8.242;2023-09-12T14:40:37;11.00;;;4.85;;
47856;SDS011;33618;49.972;8.242;2023-09-12T14:43:04;8.88;;;5.10;;
47856;SDS011;33618;49.972;8.242;2023-09-12T14:45:32;5.68;;;4.90;;
47856;SDS011;33618;49.972;8.242;2023-09-12T14:48:00;8.45;;;4.75;;
47856;SDS011;33618;49.972;8.242;2023-09-12T14:50:27;10.07;;;4.88;;
47856;SDS011;33618;49.972;8.242;2023-09-12T14:53:07;16.60;;;5.28;;
47856;SDS011;33618;49.972;8.242;2023-09-12T14:55:34;7.68;;;5.10;;
47856;SDS011;33618;49.972;8.242;2023-09-12T14:58:01;9.20;;;4.78;;
47856;SDS011;33618;49.972;8.242;2023-09-12T15:00:28;9.88;;;4.88;;
47856;SDS011;33618;49.972;8.242;2023-09-12T15:02:56;8.23;;;4.60;;
47856;SDS011;33618;49.972;8.242;2023-09-12T15:05:23;8.95;;;5.30;;
47856;SDS011;33618;49.972;8.242;2023-09-12T15:07:50;10.00;;;5.15;;